• Join FlightAware (Why Join?)
  • Login
  • US Flag 
08:20AM EDT


 

Airport Tracker/Info


-or-


 

Live Flight TrackerFlight Track Log ✈ N762NC ✈ 23-Aug-2013 ✈ KDTW - KBNA

Flight Track Log - Related Links

Times and Time Zones

All times are in EDT time to prevent confusion due to time zone crossing. See the N762NC flight status page for this flight to view local times or setup timezone preferences in your user account.

Time Position Orientation Groundspeed Altitude Reporting Facility
EDT Latitude Longitude Course Direction KTS MPH feet Rate Location/Type
10:45AM 42.2292 -83.3369 202° Southwest 150 173 1,200  Level Cleveland Center
10:46AM 42.2875 -83.3394 358° North 226 260 3,100 1,980 Climbing Cleveland Center
10:47AM 42.3556 -83.3678 343° North 244 281 5,700 2,220 Climbing Cleveland Center
10:48AM 42.3658 -83.4581 279° West 282 325 7,900 2,040 Climbing Cleveland Center
10:49AM 41.6891 -83.6654 180° South  Level Estimated
10:49AM 42.3447 -83.5500 253° West 282 325 9,700  Level Cleveland Center
10:49AM 42.3311 -83.5997 250° West 327 376 10,100 1,500 Climbing Cleveland Center
10:50AM 41.5843 -83.7272 202° Southwest  Level Estimated
10:50AM 42.2519 -83.6747 215° Southwest 369 425 12,000  Level Cleveland Center
10:51AM 42.1567 -83.6447 167° South 334 384 13,000 1,020 Climbing Cleveland Center
10:52AM 42.0644 -83.5844 154° Southeast 334 384 14,100 1,380 Climbing Cleveland Center
10:53AM 41.9600 -83.5181 155° Southeast 364 419 15,800 1,740 Climbing Cleveland Center
10:54AM 41.8697 -83.4608 155° Southeast 383 441 17,600 1,440 Climbing Cleveland Center
10:55AM 41.7636 -83.4506 176° South 383 441 18,700 1,200 Climbing Cleveland Center
10:56AM 41.6542 -83.4903 195° South 389 448 20,100 1,440 Climbing Cleveland Center
10:57AM 41.5447 -83.5242 193° South 389 448 21,600 1,260 Climbing Cleveland Center
10:58AM 41.4411 -83.5886 205° Southwest 400 460 22,700 1,020 Climbing Cleveland Center
10:59AM 41.3511 -83.6786 217° Southwest 406 467 23,700 1,200 Climbing Cleveland Center
11:00AM 41.2567 -83.7736 217° Southwest 419 482 25,100 1,200 Climbing Cleveland Center
11:01AM 41.1564 -83.8542 211° Southwest 424 488 26,200 1,080 Climbing Cleveland Center
11:02AM 41.0364 -83.8639 183° South 453 521 27,200 1,020 Climbing Indianapolis Center
11:03AM 40.9100 -83.8906 189° South 448 516 28,200 780 Climbing Indianapolis Center
11:04AM 40.7839 -83.9142 188° South 457 526 28,900 720 Climbing Indianapolis Center
11:05AM 40.6572 -83.9436 190° South 463 533 29,800 960 Climbing Indianapolis Center
11:06AM 40.5325 -83.9819 193° South 462 532 31,000 960 Climbing Indianapolis Center
11:07AM 40.4117 -84.0253 195° South 453 521 31,800 720 Climbing Indianapolis Center
11:08AM 40.2881 -84.0525 190° South 450 518 32,600 840 Climbing Indianapolis Center
11:09AM 40.1383 -84.0783 188° South 455 524 33,600 660 Climbing Indianapolis Center
11:10AM 40.0139 -84.0994 187° South 454 522 34,000 180 Climbing Indianapolis Center
11:11AM 39.8881 -84.1189 187° South 456 525 34,000  Level Indianapolis Center
11:12AM 39.7628 -84.1369 186° South 457 526 34,000  Level Indianapolis Center
11:13AM 39.6383 -84.1486 184° South 454 522 34,000  Level Indianapolis Center
11:15AM 39.4886 -84.1697 186° South 453 521 34,000  Level Indianapolis Center
11:16AM 39.3669 -84.1939 189° South 449 517 34,000  Level Indianapolis Center
11:17AM 39.2411 -84.2092 185° South 454 522 34,000  Level Indianapolis Center
11:18AM 39.1183 -84.2208 184° South 447 514 34,000  Level Indianapolis Center
11:19AM 38.9956 -84.2417 188° South 446 513 34,000  Level Indianapolis Center
11:20AM 38.8747 -84.2708 191° South 441 507 34,000  Level Indianapolis Center
11:21AM 38.7283 -84.3003 189° South 443 510 34,000  Level Indianapolis Center
11:22AM 38.6122 -84.3142 185° South 440 506 34,000  Level Indianapolis Center
11:23AM 38.4900 -84.3303 186° South 441 507 34,000  Level Indianapolis Center
11:24AM 38.3678 -84.3494 187° South 440 506 34,000  Level Indianapolis Center
11:25AM 38.2303 -84.3853 192° South 433 498 34,000 -180 Level Indianapolis Center
11:26AM 38.1133 -84.4211 194° South 432 497 33,700 -600 Descending Indianapolis Center
11:27AM 37.9989 -84.4622 196° South 426 490 32,800 -840 Descending Indianapolis Center
11:28AM 37.8869 -84.5247 204° Southwest 434 499 32,000 -420 Descending Indianapolis Center
11:29AM 37.7686 -84.5767 199° South 448 516 32,000  Level Indianapolis Center
11:30AM 37.6525 -84.6381 203° Southwest 453 521 32,000  Level Indianapolis Center
11:31AM 37.5200 -84.7181 206° Southwest 452 520 32,000  Level Indianapolis Center
11:32AM 37.4069 -84.7886 206° Southwest 452 520 32,000 -420 Level Indianapolis Center
11:33AM 37.2953 -84.8589 207° Southwest 449 517 31,200 -840 Descending Indianapolis Center
11:34AM 37.1831 -84.9308 207° Southwest 452 520 30,300 -960 Descending Indianapolis Center
11:35AM 37.0711 -85.0058 208° Southwest 456 525 29,300 -1,260 Descending Indianapolis Center
11:36AM 36.9678 -85.0864 212° Southwest 429 494 27,700 -2,280 Descending Indianapolis Center
11:37AM 36.8983 -85.2000 233° Southwest 414 476 24,700 -2,520 Descending Indianapolis Center
11:38AM 36.8211 -85.3042 227° Southwest 410 472 22,600 -1,320 Descending Indianapolis Center
11:39AM 36.7347 -85.4317 230° Southwest 405 466 22,000 -360 Descending Indianapolis Center
11:40AM 36.6628 -85.5453 232° Southwest 415 478 21,900 -1,260 Descending Indianapolis Center
11:41AM 36.6028 -85.6600 237° Southwest 400 460 19,500 -2,160 Descending Indianapolis Center
11:42AM 36.5531 -85.7758 242° Southwest 382 440 17,500 -2,340 Descending Indianapolis Center
11:43AM 36.5064 -85.9036 246° West 378 435 14,800 -3,000 Descending Indianapolis Center
11:44AM 36.4661 -86.0158 246° West 360 414 11,400 -1,500 Descending Indianapolis Center
11:46AM 36.3833 -86.1833 238° Southwest 346 398 11,000 -300 Descending Nashville TRACON
11:46AM 36.3608 -86.2242 236° Southwest 347 399 10,800 -600 Descending Indianapolis Center
11:47AM 36.3272 -86.2817 234° Southwest 340 391 10,300 -1,200 Descending Memphis Center
11:48AM 36.2781 -86.3744 237° Southwest 312 359 8,800 -1,680 Descending Memphis Center
11:49AM 36.2367 -86.4536 237° Southwest 293 337 7,000 -1,620 Descending Memphis Center
11:50AM 36.2019 -86.5400 244° Southwest 282 325 5,600 -1,020 Descending Memphis Center
11:51AM 36.1386 -86.5792 207° Southwest 253 291 5,000 -660 Descending Memphis Center
11:52AM 36.0767 -86.6050 199° South 238 274 4,300 -600 Descending Memphis Center
11:53AM 36.0150 -86.6308 199° South 238 274 3,800 -660 Descending Memphis Center
11:54AM 35.9617 -86.6564 201° Southwest 238 274 3,000 -360 Descending Memphis Center
11:55AM 35.9761 -86.7225 285° West 182 209 3,100 -180 Climbing Memphis Center
11:56AM 36.0322 -86.7225 360° North 145 167 2,700 -420 Descending Memphis Center